createdAt,value
2022-10-05T00:01:49.667Z,7.26
2022-10-05T00:05:51.009Z,7.23
2022-10-05T00:10:02.915Z,7.25
2022-10-05T00:14:12.600Z,7.27
2022-10-05T00:18:25.189Z,7.28
2022-10-05T00:22:30.936Z,7.31
2022-10-05T00:26:32.939Z,7.29
2022-10-05T00:30:34.226Z,7.33
2022-10-05T00:34:35.779Z,7.35
2022-10-05T00:38:37.453Z,7.36
2022-10-05T00:42:46.464Z,7.41
2022-10-05T00:46:56.501Z,7.40
2022-10-05T00:51:24.944Z,7.44
2022-10-05T00:55:32.476Z,7.41
2022-10-05T00:59:36.921Z,7.44
2022-10-05T01:04:01.171Z,7.42
2022-10-05T01:08:14.449Z,7.39
2022-10-05T01:12:40.998Z,7.34
2022-10-05T01:16:48.836Z,7.27
2022-10-05T01:21:09.933Z,7.26
2022-10-05T01:25:26.311Z,7.20
2022-10-05T01:29:35.956Z,7.18
2022-10-05T01:33:56.597Z,7.20
2022-10-05T01:38:16.881Z,7.19
2022-10-05T01:42:47.629Z,7.24
2022-10-05T01:46:57.607Z,7.33
2022-10-05T01:51:17.907Z,7.34
2022-10-05T01:55:27.996Z,7.38
2022-10-05T01:59:44.452Z,7.44
2022-10-05T02:03:55.284Z,7.54
2022-10-05T02:08:17.091Z,7.52
2022-10-05T02:12:25.936Z,7.56
2022-10-05T02:16:50.403Z,7.62
2022-10-05T02:20:52.872Z,7.68
2022-10-05T02:24:59.340Z,7.74
2022-10-05T02:29:03.932Z,7.78
2022-10-05T02:33:16.131Z,7.85
2022-10-05T02:37:27.013Z,7.90
2022-10-05T02:41:28.296Z,7.94
2022-10-05T02:45:41.978Z,7.99
2022-10-05T02:49:43.281Z,8.01
2022-10-05T02:54:10.901Z,8.03
2022-10-05T02:58:14.769Z,8.02
2022-10-05T03:02:22.485Z,8.01
2022-10-05T03:06:29.018Z,8.04
2022-10-05T03:10:44.953Z,8.00
2022-10-05T03:14:57.336Z,7.96
2022-10-05T03:19:17.316Z,7.95
2022-10-05T03:23:42.039Z,7.96
2022-10-05T03:27:43.331Z,8.02
2022-10-05T03:31:58.008Z,8.08
2022-10-05T03:36:06.145Z,8.12
2022-10-05T03:40:14.117Z,8.16
2022-10-05T03:44:26.303Z,8.20
2022-10-05T03:48:27.573Z,8.23
2022-10-05T03:52:43.043Z,8.28
2022-10-05T03:56:47.910Z,8.28
2022-10-05T04:00:52.944Z,8.32
2022-10-05T04:05:03.712Z,8.31
2022-10-05T04:09:16.274Z,8.32
2022-10-05T04:13:21.393Z,8.38
2022-10-05T04:17:31.418Z,8.35
2022-10-05T04:21:38.040Z,8.36
2022-10-05T04:25:53.107Z,8.40
2022-10-05T04:29:59.102Z,8.41
2022-10-05T04:34:10.964Z,8.43
2022-10-05T04:38:24.454Z,8.43
2022-10-05T04:42:31.378Z,8.43
2022-10-05T04:46:41.616Z,8.42
2022-10-05T04:50:48.122Z,8.40
2022-10-05T04:54:49.586Z,8.35
2022-10-05T04:58:50.824Z,8.29
2022-10-05T05:03:01.132Z,8.32
2022-10-05T05:07:02.432Z,8.33
2022-10-05T05:11:21.177Z,8.37
2022-10-05T05:15:25.555Z,8.48
2022-10-05T05:19:41.110Z,8.60
2022-10-05T05:24:05.183Z,8.78
2022-10-05T05:28:18.694Z,8.94
2022-10-05T05:32:30.961Z,9.07
2022-10-05T05:36:37.174Z,9.14
2022-10-05T05:40:54.040Z,9.21
2022-10-05T05:44:57.836Z,9.27
2022-10-05T05:49:03.112Z,9.33
2022-10-05T05:53:07.175Z,9.37
2022-10-05T05:57:21.476Z,9.42
2022-10-05T06:01:33.167Z,9.46
2022-10-05T06:05:42.013Z,9.49
2022-10-05T06:09:53.040Z,9.55
2022-10-05T06:13:58.024Z,9.63
2022-10-05T06:18:02.921Z,9.71
2022-10-05T06:22:07.692Z,9.77
2022-10-05T06:26:13.593Z,9.84
2022-10-05T06:30:16.081Z,9.92
2022-10-05T06:34:37.150Z,9.98
2022-10-05T06:38:48.555Z,10.06
2022-10-05T06:43:16.901Z,10.14
2022-10-05T06:47:23.451Z,10.25
2022-10-05T06:51:43.053Z,10.35
2022-10-05T06:55:51.229Z,10.44
2022-10-05T06:59:55.472Z,10.55
2022-10-05T07:04:11.055Z,10.66
2022-10-05T07:08:20.209Z,10.78
2022-10-05T07:12:36.610Z,10.86
2022-10-05T07:16:37.879Z,10.95
2022-10-05T07:20:49.323Z,11.05
2022-10-05T07:24:58.033Z,11.19
2022-10-05T07:28:59.294Z,11.25
2022-10-05T07:33:24.663Z,11.35
2022-10-05T07:38:01.132Z,11.50
2022-10-05T07:42:03.484Z,11.67
2022-10-05T07:46:16.365Z,11.74
2022-10-05T07:50:35.271Z,11.89
2022-10-05T07:54:56.209Z,12.02
2022-10-05T07:59:07.064Z,12.09
2022-10-05T08:03:15.208Z,12.19
2022-10-05T08:11:34.856Z,12.44
2022-10-05T08:15:49.195Z,12.52
2022-10-05T08:19:56.564Z,12.58
2022-10-05T08:24:02.457Z,12.61
2022-10-05T08:28:12.966Z,12.66
2022-10-05T08:32:18.664Z,12.70
2022-10-05T08:36:24.130Z,12.85
2022-10-05T08:40:39.069Z,12.94
2022-10-05T08:44:40.309Z,13.04
2022-10-05T08:49:00.363Z,13.12
2022-10-05T08:53:12.352Z,13.18
2022-10-05T08:57:25.566Z,13.29
2022-10-05T09:01:45.651Z,13.42
2022-10-05T09:05:47.209Z,13.46
2022-10-05T09:09:57.197Z,13.53
2022-10-05T09:14:28.523Z,13.56
2022-10-05T09:18:36.616Z,13.60
2022-10-05T09:22:52.464Z,13.68
2022-10-05T09:26:53.767Z,13.77
2022-10-05T09:31:03.538Z,13.83
2022-10-05T09:35:30.216Z,13.93
2022-10-05T09:39:51.748Z,13.96
2022-10-05T09:44:06.696Z,14.00
2022-10-05T09:48:33.261Z,14.01
2022-10-05T09:53:02.156Z,14.15
2022-10-05T09:57:22.128Z,14.26
2022-10-05T10:01:42.043Z,14.39
2022-10-05T10:05:49.468Z,14.45
2022-10-05T10:09:57.282Z,14.47
2022-10-05T10:14:20.295Z,14.58
2022-10-05T10:18:38.677Z,14.58
2022-10-05T10:22:46.165Z,14.65
2022-10-05T10:27:06.344Z,14.89
2022-10-05T10:31:25.501Z,15.26
2022-10-05T10:35:35.591Z,15.45
2022-10-05T10:39:55.358Z,15.61
2022-10-05T10:44:17.062Z,15.93
2022-10-05T10:48:18.264Z,16.33
2022-10-05T10:52:37.221Z,16.78
2022-10-05T10:56:58.311Z,17.01
2022-10-05T11:01:32.129Z,17.30
2022-10-05T11:05:55.160Z,17.61
2022-10-05T11:09:56.624Z,17.92
2022-10-05T11:14:07.274Z,18.19
2022-10-05T11:18:15.562Z,18.53
2022-10-05T11:22:30.569Z,18.61
2022-10-05T11:26:32.497Z,18.79
2022-10-05T11:31:00.247Z,19.13
2022-10-05T11:35:20.440Z,19.38
2022-10-05T11:39:24.889Z,19.49
2022-10-05T11:43:35.284Z,19.51
2022-10-05T11:47:55.349Z,19.76
2022-10-05T11:52:08.809Z,19.97
2022-10-05T11:56:19.916Z,20.20
2022-10-05T12:00:21.473Z,20.34
2022-10-05T12:04:45.373Z,20.65
2022-10-05T12:08:47.541Z,20.76
2022-10-05T12:12:51.923Z,20.83
2022-10-05T12:17:05.181Z,20.90
2022-10-05T12:21:15.168Z,21.05
2022-10-05T12:25:16.576Z,21.12
2022-10-05T12:29:25.399Z,21.30
2022-10-05T12:33:32.890Z,21.46
2022-10-05T12:37:54.220Z,21.47
2022-10-05T12:42:05.256Z,21.26
2022-10-05T12:46:25.528Z,21.31
2022-10-05T12:50:42.842Z,21.41
2022-10-05T12:54:57.909Z,21.41
2022-10-05T12:59:08.395Z,21.46
2022-10-05T13:03:17.797Z,21.50
2022-10-05T13:07:38.575Z,21.57
2022-10-05T13:11:48.994Z,21.62
2022-10-05T13:16:06.434Z,21.76
2022-10-05T13:20:13.564Z,21.87
2022-10-05T13:24:28.768Z,21.94
2022-10-05T13:28:34.931Z,21.81
2022-10-05T13:32:45.277Z,21.81
2022-10-05T13:37:01.965Z,21.80
2022-10-05T13:41:06.441Z,21.87
2022-10-05T13:45:15.000Z,21.88
2022-10-05T13:49:32.288Z,21.86
2022-10-05T13:53:33.645Z,21.83
2022-10-05T13:57:35.031Z,21.86
2022-10-05T14:01:55.557Z,21.79
2022-10-05T14:05:58.093Z,21.76
2022-10-05T14:09:59.901Z,21.79
2022-10-05T14:14:10.563Z,21.74
2022-10-05T14:18:23.182Z,21.67
2022-10-05T14:22:25.012Z,21.74
2022-10-05T14:26:26.337Z,21.74
2022-10-05T14:30:28.788Z,21.77
2022-10-05T14:34:32.600Z,21.77
2022-10-05T14:39:12.514Z,21.73
2022-10-05T14:43:13.747Z,21.68
2022-10-05T14:47:17.104Z,21.62
2022-10-05T14:51:28.338Z,21.66
2022-10-05T14:55:45.524Z,21.57
2022-10-05T15:00:10.120Z,21.56
2022-10-05T15:04:23.836Z,21.55
2022-10-05T15:08:25.057Z,21.48
2022-10-05T15:12:31.984Z,21.48
2022-10-05T15:16:34.338Z,21.37
2022-10-05T15:20:54.552Z,21.40
2022-10-05T15:25:09.000Z,21.46
2022-10-05T15:29:14.412Z,21.51
2022-10-05T15:33:24.234Z,21.65
2022-10-05T15:37:45.320Z,21.68
2022-10-05T15:42:02.005Z,21.87
2022-10-05T15:46:18.412Z,22.21
2022-10-05T15:50:22.904Z,22.43
2022-10-05T15:54:44.016Z,24.29
2022-10-05T15:58:48.283Z,23.88
2022-10-05T16:03:02.902Z,22.50
2022-10-05T16:07:35.378Z,21.67
2022-10-05T16:11:56.387Z,21.10
2022-10-05T16:16:23.876Z,20.64
2022-10-05T16:20:37.278Z,20.32
2022-10-05T16:24:41.856Z,20.06
2022-10-05T16:29:11.664Z,19.83
2022-10-05T16:33:21.425Z,19.63
2022-10-05T16:37:35.642Z,19.47
2022-10-05T16:41:58.404Z,19.35
2022-10-05T16:46:02.737Z,19.19
2022-10-05T16:50:13.499Z,19.07
2022-10-05T16:54:14.835Z,18.94
2022-10-05T16:58:23.702Z,18.86
2022-10-05T17:02:33.652Z,18.77
2022-10-05T17:06:50.537Z,18.65
2022-10-05T17:11:01.901Z,18.55
2022-10-05T17:15:18.585Z,18.47
2022-10-05T17:19:32.529Z,18.34
2022-10-05T17:23:53.535Z,18.22
2022-10-05T17:27:57.117Z,18.16
2022-10-05T17:32:04.984Z,18.06
2022-10-05T17:36:27.046Z,17.96
2022-10-05T17:40:38.729Z,17.90
2022-10-05T17:44:46.612Z,17.81
2022-10-05T17:48:54.231Z,17.69
2022-10-05T17:53:33.264Z,17.62
2022-10-05T17:57:36.723Z,17.53
2022-10-05T18:01:39.593Z,17.37
2022-10-05T18:05:41.053Z,17.22
2022-10-05T18:09:59.371Z,17.14
2022-10-05T18:14:30.032Z,17.05
2022-10-05T18:18:40.644Z,16.94
2022-10-05T18:22:46.355Z,16.87
2022-10-05T18:26:47.589Z,16.80
2022-10-05T18:30:53.108Z,16.75
2022-10-05T18:35:02.061Z,16.66
2022-10-05T18:39:06.700Z,16.57
2022-10-05T18:43:17.939Z,16.45
2022-10-05T18:47:37.804Z,16.32
2022-10-05T18:51:54.264Z,16.19
2022-10-05T18:56:14.474Z,16.06
2022-10-05T19:00:20.790Z,15.96
2022-10-05T19:04:31.376Z,15.83
2022-10-05T19:08:33.807Z,15.70
2022-10-05T19:12:38.107Z,15.66
2022-10-05T19:16:53.161Z,15.74
2022-10-05T19:20:57.506Z,15.80
2022-10-05T19:25:06.305Z,15.82
2022-10-05T19:29:22.548Z,15.88
2022-10-05T19:33:43.024Z,15.96
2022-10-05T19:37:50.268Z,16.11
2022-10-05T19:42:04.227Z,16.17
2022-10-05T19:46:08.351Z,16.24
2022-10-05T19:50:26.595Z,16.22
2022-10-05T19:54:29.760Z,16.20
2022-10-05T19:58:38.417Z,16.21
2022-10-05T20:02:42.086Z,16.23
2022-10-05T20:06:43.564Z,16.26
2022-10-05T20:10:46.033Z,16.14
2022-10-05T20:15:06.302Z,16.02
2022-10-05T20:19:45.323Z,15.85
2022-10-05T20:23:46.602Z,15.70
2022-10-05T20:27:49.041Z,15.55
2022-10-05T20:31:50.401Z,15.41
2022-10-05T20:35:53.970Z,15.26
2022-10-05T20:39:55.209Z,15.13
2022-10-05T20:43:56.457Z,15.01
2022-10-05T20:47:57.821Z,14.91
2022-10-05T20:51:59.121Z,14.79
2022-10-05T20:56:02.281Z,14.71
2022-10-05T21:00:03.690Z,14.63
2022-10-05T21:04:06.834Z,14.52
2022-10-05T21:08:08.148Z,14.44
2022-10-05T21:12:09.825Z,14.34
2022-10-05T21:16:13.263Z,14.28
2022-10-05T21:20:14.816Z,14.20
2022-10-05T21:24:17.206Z,14.16
2022-10-05T21:28:18.655Z,14.19
2022-10-05T21:32:19.922Z,14.26
2022-10-05T21:36:24.584Z,14.31
2022-10-05T21:40:26.190Z,14.31
2022-10-05T21:44:27.455Z,14.29
2022-10-05T21:48:30.681Z,14.21
2022-10-05T21:52:33.578Z,14.20
2022-10-05T21:56:37.008Z,14.17
2022-10-05T22:00:38.401Z,14.13
2022-10-05T22:04:39.700Z,14.10
2022-10-05T22:08:41.520Z,14.16
2022-10-05T22:12:42.783Z,14.15
2022-10-05T22:16:44.300Z,14.09
2022-10-05T22:20:45.981Z,14.03
2022-10-05T22:24:47.533Z,13.97
2022-10-05T22:28:50.852Z,13.89
2022-10-05T22:32:52.125Z,13.85
2022-10-05T22:36:53.469Z,13.77
2022-10-05T22:40:54.784Z,13.71
2022-10-05T22:44:56.036Z,13.64
2022-10-05T22:48:58.227Z,13.57
2022-10-05T22:52:59.549Z,13.52
2022-10-05T22:57:01.152Z,13.47
2022-10-05T23:01:06.637Z,13.44
2022-10-05T23:05:08.515Z,13.43
2022-10-05T23:09:09.803Z,13.43
2022-10-05T23:13:11.344Z,13.43
2022-10-05T23:17:12.577Z,13.43
2022-10-05T23:21:14.278Z,13.41
2022-10-05T23:25:15.693Z,13.36
2022-10-05T23:29:17.197Z,13.29
2022-10-05T23:33:18.473Z,13.22
2022-10-05T23:37:22.592Z,13.14
2022-10-05T23:41:25.345Z,13.09
2022-10-05T23:45:26.740Z,13.01
2022-10-05T23:49:27.994Z,12.98
2022-10-05T23:53:29.312Z,12.93
2022-10-05T23:57:30.851Z,12.87
